In Salah, Algeria
Current Conditions -  °F | °C
As of 4:00 AM on Sunday 23 Nov 2014 (Local Time) from DAUI Reporting Station
Clear Clear  
Wind Chill: 68°   Ceiling: Unl
Heat Index: 68°   Visibility: 6mi
Dew Point: 30°   Wind: 12mph
Humidity: 24%   Direction: 60°ENE
Pressure: 30.06"   Gusts: NA
Location:  27.19°N, 2.47°E
Report Text: DAUI 230300Z 06010KT CAVOK 20/M01 Q1018
Loading
Personal Weather Stations






























Interactive Weather Map New forecast layout! Learn more

10-Day Weather Forecast

Advertisements
Track Severe Weather on mobile